Time;durP1;ratioP1;P1;durP2;ratioP2;P2;SDS_P1;SDS_P2;PMS_P1;PMS_P2;Temp;Humidity;BMP_temperature;BMP_pressure;BME280_temperature;BME280_humidity;BME280_pressure;Samples;Min_cycle;Max_cycle;Signal;HPM_P1;HPM_P2
2023/01/22 00:00:29;;;;;;;13.07;7.30;;;2.60;99.90;;;;;;5109778;27;20184;-82
2023/01/22 00:02:54;;;;;;;18.60;8.15;;;2.60;99.90;;;;;;5110113;27;20197;-79
2023/01/22 00:05:20;;;;;;;14.63;8.20;;;2.60;99.90;;;;;;5112280;27;20698;-81
2023/01/22 00:07:46;;;;;;;15.32;8.20;;;2.60;99.90;;;;;;5091306;27;20616;-82
2023/01/22 00:10:12;;;;;;;15.45;8.57;;;2.60;99.90;;;;;;5094802;27;20181;-81
2023/01/22 00:12:38;;;;;;;15.32;8.27;;;2.50;99.90;;;;;;5110502;27;20208;-81
2023/01/22 00:15:04;;;;;;;17.70;9.57;;;2.50;99.90;;;;;;5110526;27;20204;-80
2023/01/22 00:17:29;;;;;;;19.58;10.18;;;2.40;99.90;;;;;;5109039;27;20189;-81
2023/01/22 00:19:55;;;;;;;16.48;9.80;;;2.50;99.90;;;;;;5109920;27;20648;-82
2023/01/22 00:22:21;;;;;;;18.13;10.05;;;2.40;99.90;;;;;;5099009;27;20600;-80
2023/01/22 00:24:47;;;;;;;16.38;9.43;;;2.40;99.90;;;;;;5111909;27;20332;-82
2023/01/22 00:27:12;;;;;;;21.75;10.45;;;2.40;99.90;;;;;;5109552;27;20288;-81
2023/01/22 00:29:39;;;;;;;20.65;10.40;;;2.30;99.90;;;;;;5094935;27;20325;-80
2023/01/22 00:32:05;;;;;;;20.40;11.05;;;2.20;99.90;;;;;;5093677;27;20231;-81
2023/01/22 00:34:32;;;;;;;22.88;11.02;;;2.30;99.90;;;;;;5112067;27;20189;-81
2023/01/22 00:36:57;;;;;;;21.52;11.88;;;2.30;99.90;;;;;;5112095;27;20176;-80
2023/01/22 00:39:23;;;;;;;19.20;11.23;;;2.20;99.90;;;;;;5095413;27;20245;-81
2023/01/22 00:41:50;;;;;;;20.92;11.65;;;2.20;99.90;;;;;;5129693;27;20187;-81
2023/01/22 00:44:19;;;;;;;25.63;13.20;;;2.20;99.90;;;;;;5110387;27;20193;-82
2023/01/22 00:46:45;;;;;;;20.38;11.52;;;2.20;99.90;;;;;;5073726;27;20245;-81
2023/01/22 00:49:11;;;;;;;20.13;12.23;;;2.10;99.90;;;;;;5109221;27;20268;-81
2023/01/22 00:51:38;;;;;;;21.40;11.25;;;2.10;99.90;;;;;;5092440;27;20199;-80
2023/01/22 00:54:04;;;;;;;21.15;12.38;;;2.10;99.90;;;;;;5094516;27;20253;-80
2023/01/22 00:56:29;;;;;;;20.77;11.70;;;2.00;99.90;;;;;;5107441;27;20640;-82
2023/01/22 00:58:55;;;;;;;20.80;12.63;;;2.00;99.90;;;;;;5091340;27;20239;-80
2023/01/22 01:01:21;;;;;;;22.17;12.85;;;2.00;99.90;;;;;;5057706;27;20213;-79
2023/01/22 01:03:47;;;;;;;22.25;12.85;;;2.00;99.90;;;;;;5108689;27;20590;-78
2023/01/22 01:06:19;;;;;;;22.98;12.57;;;2.00;99.90;;;;;;5096447;27;20191;-80
2023/01/22 01:08:45;;;;;;;22.63;12.90;;;2.00;99.90;;;;;;5110252;27;20189;-80
2023/01/22 01:11:15;;;;;;;24.15;12.45;;;2.00;99.90;;;;;;5108947;27;20299;-81
2023/01/22 01:13:42;;;;;;;24.52;13.13;;;2.00;99.90;;;;;;5108233;27;20224;-80
2023/01/22 01:16:12;;;;;;;27.45;13.60;;;2.00;99.90;;;;;;5111886;27;20188;-78
2023/01/22 01:18:39;;;;;;;23.88;12.73;;;2.00;99.90;;;;;;5111206;27;20196;-80
2023/01/22 01:21:06;;;;;;;23.23;12.38;;;2.00;99.90;;;;;;5103890;27;20183;-82
2023/01/22 01:23:33;;;;;;;23.92;13.05;;;1.90;99.90;;;;;;5109899;27;20208;-82
2023/01/22 01:25:59;;;;;;;26.35;13.48;;;1.90;99.90;;;;;;5107848;27;20426;-80
2023/01/22 01:28:27;;;;;;;24.23;13.57;;;2.00;99.90;;;;;;5110281;27;20196;-81
2023/01/22 01:30:53;;;;;;;30.85;13.95;;;1.90;99.90;;;;;;5109165;27;20189;-81
2023/01/22 01:33:19;;;;;;;26.92;13.90;;;2.00;99.90;;;;;;5107914;27;20204;-80
2023/01/22 01:35:45;;;;;;;23.27;13.80;;;2.00;99.90;;;;;;5107651;27;20221;-81
2023/01/22 01:38:11;;;;;;;23.95;12.95;;;1.90;99.90;;;;;;5105595;27;20196;-81
2023/01/22 01:40:43;;;;;;;24.15;13.23;;;1.90;99.90;;;;;;5108079;27;20195;-82
2023/01/22 01:43:16;;;;;;;23.33;12.55;;;1.90;99.90;;;;;;5108562;27;20191;-81
2023/01/22 01:45:42;;;;;;;28.38;13.48;;;1.90;99.90;;;;;;5107024;27;20229;-82
2023/01/22 01:48:20;;;;;;;26.27;12.45;;;1.90;99.90;;;;;;5107526;27;20302;-80
2023/01/22 01:50:56;;;;;;;29.13;14.30;;;1.90;99.90;;;;;;5107759;27;20176;-80
2023/01/22 01:53:23;;;;;;;22.48;12.85;;;1.90;99.90;;;;;;5109898;27;20209;-80
2023/01/22 01:55:49;;;;;;;27.52;13.90;;;1.90;99.90;;;;;;5106367;27;20192;-80
2023/01/22 01:58:20;;;;;;;24.70;13.32;;;1.90;99.90;;;;;;5088611;27;20188;-80
2023/01/22 02:00:52;;;;;;;26.23;14.30;;;1.90;99.90;;;;;;5107396;27;20189;-80
2023/01/22 02:03:20;;;;;;;24.10;13.25;;;1.90;99.90;;;;;;5099393;27;20229;-79
2023/01/22 02:05:46;;;;;;;31.17;13.43;;;1.90;99.90;;;;;;5105432;27;20181;-80
2023/01/22 02:08:13;;;;;;;26.95;13.90;;;1.90;99.90;;;;;;5090965;27;20195;-81
2023/01/22 02:10:39;;;;;;;20.92;13.10;;;1.90;99.90;;;;;;5108336;27;20195;-81
2023/01/22 02:13:18;;;;;;;25.08;14.77;;;2.00;99.90;;;;;;5095882;27;20273;-80
2023/01/22 02:15:46;;;;;;;22.98;13.02;;;1.90;99.90;;;;;;5108572;27;20713;-79
2023/01/22 02:18:11;;;;;;;19.55;12.90;;;1.90;99.90;;;;;;5106315;27;20188;-83
2023/01/22 02:20:38;;;;;;;26.58;14.70;;;2.00;99.90;;;;;;5130399;27;20651;-81
2023/01/22 02:23:06;;;;;;;23.48;13.80;;;2.00;99.90;;;;;;5104415;27;20188;-81
2023/01/22 02:25:32;;;;;;;27.65;14.55;;;1.90;99.90;;;;;;5107683;27;20184;-81
2023/01/22 02:27:59;;;;;;;26.02;13.75;;;2.00;99.90;;;;;;5110926;27;20185;-81
2023/01/22 02:30:25;;;;;;;26.30;13.32;;;2.00;99.90;;;;;;5096691;27;20595;-80
2023/01/22 02:32:51;;;;;;;26.95;13.43;;;1.90;99.90;;;;;;5111709;27;20281;-80
2023/01/22 02:35:17;;;;;;;21.58;12.35;;;2.00;99.90;;;;;;5088145;27;20207;-79
2023/01/22 02:37:42;;;;;;;23.90;12.68;;;2.00;99.90;;;;;;5104728;27;20550;-81
2023/01/22 02:40:09;;;;;;;22.63;11.65;;;2.00;99.90;;;;;;5095289;28;20212;-81
2023/01/22 02:42:35;;;;;;;21.40;10.68;;;2.10;99.90;;;;;;5110050;28;20211;-80
2023/01/22 02:45:01;;;;;;;24.00;10.95;;;2.10;99.90;;;;;;5106117;28;20653;-79
2023/01/22 02:47:26;;;;;;;21.98;11.00;;;2.10;99.90;;;;;;5106521;28;20212;-80
2023/01/22 02:49:52;;;;;;;21.20;10.68;;;2.10;99.90;;;;;;5109590;28;20225;-80
2023/01/22 02:52:18;;;;;;;21.65;10.77;;;2.10;99.90;;;;;;5109028;28;20251;-80
2023/01/22 02:54:45;;;;;;;15.38;9.93;;;2.10;99.90;;;;;;5110705;28;20250;-80
2023/01/22 02:57:11;;;;;;;19.67;9.13;;;2.10;99.90;;;;;;5103817;28;20204;-80
2023/01/22 02:59:37;;;;;;;18.42;8.90;;;2.20;99.90;;;;;;5096008;28;20363;-80
2023/01/22 03:02:03;;;;;;;15.10;8.63;;;2.10;99.90;;;;;;5093640;28;20938;-81
2023/01/22 03:04:29;;;;;;;14.82;8.38;;;2.20;99.90;;;;;;5112124;28;20308;-80
2023/01/22 03:06:55;;;;;;;13.98;8.20;;;2.20;99.90;;;;;;5110101;28;20741;-81
2023/01/22 03:09:23;;;;;;;20.48;7.88;;;2.20;99.90;;;;;;5094293;28;20206;-79
2023/01/22 03:11:49;;;;;;;12.20;6.90;;;2.30;99.90;;;;;;5108070;28;20200;-81
2023/01/22 03:22:36;;;;;;;12.35;6.25;;;2.20;99.90;;;;;;5123055;27;20193;-82
2023/01/22 03:25:02;;;;;;;10.50;5.75;;;2.20;99.90;;;;;;5091058;28;20671;-82
2023/01/22 03:27:30;;;;;;;14.13;6.45;;;2.20;99.90;;;;;;5104900;28;21966;-80
2023/01/22 03:29:56;;;;;;;12.95;5.82;;;2.20;99.90;;;;;;5107442;27;20183;-81
2023/01/22 03:32:23;;;;;;;8.57;5.63;;;2.20;99.90;;;;;;5092161;27;20292;-80
2023/01/22 03:34:49;;;;;;;8.68;5.20;;;2.20;99.90;;;;;;5111079;27;20275;-80
2023/01/22 03:37:15;;;;;;;12.45;6.03;;;2.20;99.90;;;;;;5095970;27;20790;-80
2023/01/22 03:39:43;;;;;;;13.07;5.88;;;2.20;99.90;;;;;;5110892;27;20204;-81
2023/01/22 03:42:16;;;;;;;10.27;5.88;;;2.30;99.90;;;;;;5128131;27;20188;-80
2023/01/22 03:44:42;;;;;;;10.88;5.03;;;2.20;99.90;;;;;;5093936;27;20922;-83
2023/01/22 03:47:08;;;;;;;7.70;4.85;;;2.30;99.90;;;;;;5069846;27;20169;-80
2023/01/22 03:49:34;;;;;;;14.57;5.35;;;2.30;99.90;;;;;;5111579;27;20249;-81
2023/01/22 03:52:03;;;;;;;10.57;5.25;;;2.30;99.90;;;;;;5096874;27;22630;-80
2023/01/22 03:54:28;;;;;;;11.30;5.15;;;2.30;99.90;;;;;;5077428;27;20188;-81
2023/01/22 03:56:56;;;;;;;8.07;4.65;;;2.30;99.90;;;;;;5095729;27;20191;-81
2023/01/22 03:59:28;;;;;;;10.73;5.32;;;2.30;99.90;;;;;;5108881;27;20229;-79
2023/01/22 04:01:54;;;;;;;8.27;5.20;;;2.40;99.90;;;;;;5093593;27;20192;-79
2023/01/22 04:04:20;;;;;;;8.55;5.28;;;2.40;99.90;;;;;;5094532;27;20185;-81
2023/01/22 04:06:46;;;;;;;14.52;5.68;;;2.40;99.90;;;;;;5096307;27;20185;-81
2023/01/22 04:09:13;;;;;;;9.95;5.40;;;2.30;99.90;;;;;;5091157;27;20272;-82
2023/01/22 04:11:45;;;;;;;6.00;4.45;;;2.40;99.90;;;;;;5106652;27;20211;-81
2023/01/22 04:14:11;;;;;;;8.57;4.70;;;2.40;99.90;;;;;;5109977;27;20731;-79
2023/01/22 04:16:42;;;;;;;16.73;5.53;;;2.40;99.90;;;;;;5108745;27;20187;-79
2023/01/22 04:19:37;;;;;;;10.88;4.70;;;2.40;99.90;;;;;;5096583;27;20193;-80
2023/01/22 04:22:21;;;;;;;6.85;5.18;;;2.40;99.90;;;;;;5096364;27;20188;-81
2023/01/22 04:24:48;;;;;;;11.35;4.80;;;2.40;99.90;;;;;;5093693;27;20203;-81
2023/01/22 04:27:15;;;;;;;9.00;5.20;;;2.40;99.90;;;;;;5097026;27;20571;-79
2023/01/22 04:29:40;;;;;;;12.20;5.43;;;2.40;99.90;;;;;;5074278;27;20191;-81
2023/01/22 04:32:07;;;;;;;12.60;6.00;;;2.40;99.90;;;;;;5089225;27;20679;-81
2023/01/22 04:34:49;;;;;;;9.13;5.80;;;2.50;99.90;;;;;;5097113;27;20188;-80
2023/01/22 04:37:20;;;;;;;12.02;5.50;;;2.40;99.90;;;;;;5098600;27;20223;-81
2023/01/22 04:39:46;;;;;;;8.75;5.25;;;2.40;99.90;;;;;;5096089;27;20189;-79
2023/01/22 04:42:11;;;;;;;8.38;5.38;;;2.30;99.90;;;;;;5111637;27;20188;-81
2023/01/22 04:44:37;;;;;;;16.10;5.70;;;2.40;99.90;;;;;;5110003;27;20200;-79
2023/01/22 04:47:06;;;;;;;9.05;6.20;;;2.40;99.90;;;;;;5094483;27;20191;-82
2023/01/22 04:49:32;;;;;;;11.45;6.72;;;2.40;99.90;;;;;;5091687;27;20189;-79
2023/01/22 04:51:58;;;;;;;11.02;5.57;;;2.40;99.90;;;;;;5091654;27;20184;-79
2023/01/22 04:54:26;;;;;;;10.48;5.63;;;2.40;99.90;;;;;;5096473;27;20200;-81
2023/01/22 04:56:51;;;;;;;9.23;5.50;;;2.40;99.90;;;;;;5090983;27;20181;-81
2023/01/22 04:59:18;;;;;;;11.30;5.43;;;2.40;99.90;;;;;;5108372;27;20228;-80
2023/01/22 05:01:43;;;;;;;10.15;6.28;;;2.40;99.90;;;;;;5108795;27;20693;-81
2023/01/22 05:04:10;;;;;;;10.13;5.30;;;2.40;99.90;;;;;;5112134;27;20184;-81
2023/01/22 05:06:36;;;;;;;10.75;5.90;;;2.50;99.90;;;;;;5094406;27;20261;-79
2023/01/22 05:09:02;;;;;;;10.65;5.35;;;2.40;99.90;;;;;;5092844;27;20193;-80
2023/01/22 05:11:34;;;;;;;12.65;5.65;;;2.40;99.90;;;;;;5091867;27;20184;-80
2023/01/22 05:14:01;;;;;;;10.88;5.07;;;2.40;99.90;;;;;;5107240;27;20215;-80
2023/01/22 05:16:27;;;;;;;10.63;4.68;;;2.40;99.90;;;;;;5098156;27;20189;-79
2023/01/22 05:18:53;;;;;;;9.77;5.03;;;2.40;99.90;;;;;;5109501;27;20196;-81
2023/01/22 05:21:19;;;;;;;8.32;4.90;;;2.30;99.90;;;;;;5108641;27;20188;-80
2023/01/22 05:23:46;;;;;;;10.23;5.40;;;2.40;99.90;;;;;;5110382;27;20276;-81
2023/01/22 05:26:12;;;;;;;11.68;5.40;;;2.40;99.90;;;;;;5104236;27;20189;-79
2023/01/22 05:28:58;;;;;;;9.05;5.10;;;2.40;99.90;;;;;;5109708;27;20250;-80
2023/01/22 05:31:36;;;;;;;7.03;5.07;;;2.40;99.90;;;;;;5107534;27;20276;-80
2023/01/22 05:34:04;;;;;;;11.18;5.53;;;2.40;99.90;;;;;;5110614;27;20355;-78
2023/01/22 05:36:31;;;;;;;8.85;5.47;;;2.50;99.90;;;;;;5105836;27;20204;-80
2023/01/22 05:39:02;;;;;;;9.40;5.18;;;2.40;99.90;;;;;;5095594;27;20583;-80
2023/01/22 05:41:28;;;;;;;8.77;5.28;;;2.40;99.90;;;;;;5110967;27;20180;-80
2023/01/22 05:43:55;;;;;;;9.15;5.35;;;2.50;99.90;;;;;;5093269;27;20341;-80
2023/01/22 05:46:25;;;;;;;11.00;5.85;;;2.50;99.90;;;;;;5087654;27;20464;-81
2023/01/22 05:49:04;;;;;;;12.25;5.78;;;2.40;99.90;;;;;;5110650;27;20188;-79
2023/01/22 05:51:31;;;;;;;9.20;5.53;;;2.40;99.90;;;;;;5092827;27;20301;-81
2023/01/22 05:53:57;;;;;;;13.00;5.28;;;2.40;99.90;;;;;;5108276;27;21217;-80
2023/01/22 05:56:27;;;;;;;8.30;5.53;;;2.40;99.90;;;;;;5103900;27;20659;-80
2023/01/22 05:58:53;;;;;;;10.73;5.07;;;2.40;99.90;;;;;;5090571;27;20264;-82
2023/01/22 06:01:19;;;;;;;8.32;4.60;;;2.40;99.90;;;;;;5088160;27;20335;-82
2023/01/22 06:03:49;;;;;;;14.32;5.40;;;2.40;99.90;;;;;;5094862;27;20345;-81
2023/01/22 06:06:18;;;;;;;8.77;5.00;;;2.40;99.90;;;;;;5094792;27;20701;-83
2023/01/22 06:08:46;;;;;;;7.00;5.07;;;2.40;99.90;;;;;;5111407;27;20750;-81
2023/01/22 06:11:15;;;;;;;12.82;4.95;;;2.40;99.90;;;;;;5108018;27;20245;-78
2023/01/22 06:13:44;;;;;;;7.18;4.50;;;2.40;99.90;;;;;;5104095;27;20273;-80
2023/01/22 06:16:18;;;;;;;7.88;5.18;;;2.30;99.90;;;;;;5104697;27;20271;-81
2023/01/22 06:19:02;;;;;;;8.13;4.68;;;2.30;99.90;;;;;;5109791;27;20188;-80
2023/01/22 06:21:34;;;;;;;7.88;5.30;;;2.40;99.90;;;;;;5103498;27;20238;-81
2023/01/22 06:24:00;;;;;;;15.70;5.57;;;2.40;99.90;;;;;;5107077;27;20188;-81
2023/01/22 06:26:27;;;;;;;9.13;5.97;;;2.40;99.90;;;;;;5105548;27;20176;-80
2023/01/22 06:28:54;;;;;;;10.57;5.78;;;2.40;99.90;;;;;;5090111;28;20211;-81
2023/01/22 06:31:20;;;;;;;7.47;4.82;;;2.30;99.90;;;;;;5105629;27;20233;-81
2023/01/22 06:33:46;;;;;;;14.07;5.97;;;2.30;99.90;;;;;;5106408;27;20216;-79
2023/01/22 06:36:13;;;;;;;8.32;5.72;;;2.30;99.90;;;;;;5093666;28;20185;-87
2023/01/22 06:38:39;;;;;;;11.65;6.32;;;2.30;99.90;;;;;;5093546;27;20686;-82
2023/01/22 06:41:08;;;;;;;10.90;6.60;;;2.30;99.90;;;;;;5108270;27;20203;-84
2023/01/22 06:43:36;;;;;;;8.35;6.43;;;2.30;99.90;;;;;;5106703;28;20205;-81
2023/01/22 06:46:03;;;;;;;9.95;6.47;;;2.30;99.90;;;;;;5078319;28;20195;-82
2023/01/22 06:48:46;;;;;;;11.80;6.57;;;2.30;99.90;;;;;;5097918;28;20180;-80
2023/01/22 06:51:12;;;;;;;10.73;6.15;;;2.30;99.90;;;;;;5109905;28;20662;-81
2023/01/22 06:53:38;;;;;;;10.88;6.63;;;2.20;99.90;;;;;;5097086;28;20201;-81
2023/01/22 06:56:05;;;;;;;10.07;6.60;;;2.20;99.90;;;;;;5090286;28;20204;-82
2023/01/22 06:58:31;;;;;;;11.25;6.78;;;2.20;99.90;;;;;;5107366;28;20177;-83
2023/01/22 07:01:01;;;;;;;11.60;7.22;;;2.20;99.90;;;;;;5106523;28;20199;-81
2023/01/22 07:03:27;;;;;;;19.58;7.35;;;2.20;99.90;;;;;;5089955;28;20712;-80
2023/01/22 07:06:01;;;;;;;10.43;7.30;;;2.20;99.90;;;;;;5090113;27;20238;-81
2023/01/22 07:08:28;;;;;;;13.52;7.22;;;2.20;99.90;;;;;;5111238;27;20176;-80
2023/01/22 07:10:53;;;;;;;11.57;7.45;;;2.10;99.90;;;;;;5113473;27;20184;-83
2023/01/22 07:13:20;;;;;;;10.80;7.07;;;2.20;99.90;;;;;;5111702;27;21412;-80
2023/01/22 07:15:46;;;;;;;16.77;7.82;;;2.20;99.90;;;;;;5112253;27;20696;-81
2023/01/22 07:18:13;;;;;;;10.65;7.72;;;2.10;99.90;;;;;;5112444;27;20192;-80
2023/01/22 07:20:43;;;;;;;12.90;7.85;;;2.10;99.90;;;;;;5111141;27;20208;-81
2023/01/22 07:23:08;;;;;;;11.60;7.53;;;2.10;99.90;;;;;;5111583;27;20199;-82
2023/01/22 07:25:34;;;;;;;12.50;7.82;;;2.10;99.90;;;;;;5097822;27;20189;-82
2023/01/22 07:28:01;;;;;;;10.85;7.20;;;2.10;99.90;;;;;;5113933;27;20184;-78
2023/01/22 07:30:27;;;;;;;14.00;8.18;;;2.00;99.90;;;;;;5097793;27;20189;-80
2023/01/22 07:32:58;;;;;;;10.65;7.20;;;2.10;99.90;;;;;;5097084;27;20212;-82
2023/01/22 07:35:23;;;;;;;11.75;7.45;;;2.00;99.90;;;;;;5112227;27;20185;-79
2023/01/22 07:37:54;;;;;;;12.68;8.02;;;2.00;99.90;;;;;;5107788;27;20625;-80
2023/01/22 07:40:23;;;;;;;10.02;7.32;;;2.00;99.90;;;;;;5111866;27;20794;-81
2023/01/22 07:42:50;;;;;;;9.88;7.38;;;2.10;99.90;;;;;;5110641;27;20188;-82
2023/01/22 07:45:18;;;;;;;12.32;7.57;;;2.00;99.90;;;;;;5112567;27;20276;-80
2023/01/22 07:47:55;;;;;;;10.52;7.28;;;2.00;99.90;;;;;;5111241;27;20337;-82
2023/01/22 07:50:22;;;;;;;10.95;7.38;;;2.00;99.90;;;;;;5113720;27;20651;-82
2023/01/22 07:52:48;;;;;;;13.80;8.07;;;2.00;99.90;;;;;;5111244;27;20901;-79
2023/01/22 07:55:15;;;;;;;15.10;7.32;;;2.00;99.90;;;;;;5114499;27;20207;-82
2023/01/22 07:57:40;;;;;;;12.60;7.13;;;2.00;99.90;;;;;;5108647;27;20177;-82
2023/01/22 08:00:09;;;;;;;11.05;7.80;;;2.00;99.90;;;;;;5114706;27;20236;-81
2023/01/22 08:02:39;;;;;;;9.77;7.10;;;2.00;99.90;;;;;;5110370;27;20237;-80
2023/01/22 08:05:06;;;;;;;9.45;7.43;;;2.00;99.90;;;;;;5099433;27;20658;-80
2023/01/22 08:07:31;;;;;;;12.70;8.30;;;1.90;99.90;;;;;;5111996;27;20193;-84
2023/01/22 08:09:57;;;;;;;11.10;7.55;;;2.00;99.90;;;;;;5113108;27;20644;-81
2023/01/22 08:12:23;;;;;;;14.57;8.32;;;1.90;99.90;;;;;;5115723;27;20243;-82
2023/01/22 08:14:49;;;;;;;15.20;8.23;;;2.00;99.90;;;;;;5113496;27;20670;-82
2023/01/22 08:17:15;;;;;;;12.00;7.65;;;2.00;99.90;;;;;;5117015;27;20830;-80
2023/01/22 08:19:41;;;;;;;14.82;7.72;;;2.00;99.90;;;;;;5110095;27;20272;-83
2023/01/22 08:22:07;;;;;;;10.10;6.80;;;1.90;99.90;;;;;;5119247;27;21449;-83
2023/01/22 08:24:35;;;;;;;11.30;7.38;;;1.90;99.90;;;;;;5113858;27;20281;-82
2023/01/22 08:27:01;;;;;;;13.15;7.15;;;2.00;99.90;;;;;;5112865;27;20295;-81
2023/01/22 08:29:26;;;;;;;10.38;6.60;;;2.00;99.90;;;;;;5112221;27;20431;-81
2023/01/22 08:31:52;;;;;;;15.43;7.10;;;2.00;99.90;;;;;;5109865;27;20204;-79
2023/01/22 08:34:19;;;;;;;10.80;6.78;;;2.00;99.90;;;;;;5112711;27;20363;-83
2023/01/22 08:36:45;;;;;;;9.52;7.13;;;1.90;99.90;;;;;;5097838;27;20244;-83
2023/01/22 08:39:12;;;;;;;14.20;7.75;;;1.90;99.90;;;;;;5113153;27;20177;-82
2023/01/22 08:41:39;;;;;;;13.68;8.32;;;1.90;99.90;;;;;;5111632;27;20702;-86
2023/01/22 08:44:04;;;;;;;13.43;8.00;;;1.90;99.90;;;;;;5113551;27;20192;-81
2023/01/22 08:46:30;;;;;;;11.13;7.60;;;1.90;99.90;;;;;;5112418;27;20180;-82
2023/01/22 08:48:57;;;;;;;11.23;8.00;;;2.00;99.90;;;;;;5114339;27;20546;-82
2023/01/22 08:51:23;;;;;;;11.50;7.15;;;2.00;99.90;;;;;;5084734;27;20199;-80
2023/01/22 08:53:50;;;;;;;12.02;7.43;;;2.00;99.90;;;;;;5099915;27;20215;-82
2023/01/22 08:56:16;;;;;;;12.18;7.90;;;2.00;99.90;;;;;;5092675;27;20193;-81
2023/01/22 08:58:42;;;;;;;10.48;6.82;;;2.00;99.90;;;;;;5110808;27;20184;-81
2023/01/22 09:01:14;;;;;;;11.60;7.60;;;2.00;99.90;;;;;;5113320;27;20207;-81
2023/01/22 09:03:40;;;;;;;15.23;8.00;;;2.00;99.90;;;;;;5116557;27;20275;-82
2023/01/22 09:06:06;;;;;;;14.15;7.20;;;2.00;99.90;;;;;;5110216;27;20184;-81
2023/01/22 09:08:32;;;;;;;11.40;7.80;;;2.00;99.90;;;;;;5114440;27;20189;-83
2023/01/22 09:10:57;;;;;;;10.00;6.88;;;2.10;99.90;;;;;;5112094;27;20301;-82
2023/01/22 09:13:23;;;;;;;14.00;7.05;;;2.10;99.90;;;;;;5109053;27;20687;-81
2023/01/22 09:15:49;;;;;;;10.00;6.85;;;2.10;99.90;;;;;;5110390;27;20197;-81
2023/01/22 09:18:15;;;;;;;8.68;6.20;;;2.20;99.90;;;;;;5090998;27;20220;-80
2023/01/22 09:20:40;;;;;;;13.00;6.30;;;2.30;99.90;;;;;;5109215;27;20597;-80
2023/01/22 09:23:06;;;;;;;10.23;6.60;;;2.30;99.90;;;;;;5089392;27;20189;-83
2023/01/22 09:25:32;;;;;;;9.70;6.47;;;2.30;99.90;;;;;;5094801;27;20733;-78
2023/01/22 09:27:59;;;;;;;10.05;6.35;;;2.30;99.90;;;;;;5087934;27;20185;-84
2023/01/22 09:30:28;;;;;;;11.95;6.47;;;2.40;99.90;;;;;;5111910;27;20193;-82
2023/01/22 09:32:54;;;;;;;10.02;6.82;;;2.50;99.90;;;;;;5108844;27;20219;-82
2023/01/22 09:35:20;;;;;;;10.52;6.78;;;2.60;99.90;;;;;;5113497;27;20215;-85
2023/01/22 09:37:46;;;;;;;12.63;7.50;;;2.70;99.90;;;;;;5090061;27;20217;-83
2023/01/22 09:40:20;;;;;;;11.10;6.80;;;2.80;99.90;;;;;;5110486;27;20180;-79
2023/01/22 09:42:46;;;;;;;10.23;6.10;;;2.80;99.90;;;;;;5109349;27;20489;-86
2023/01/22 09:45:15;;;;;;;13.48;7.00;;;2.90;99.90;;;;;;5110475;27;20185;-82
2023/01/22 09:47:46;;;;;;;11.43;7.32;;;2.90;99.90;;;;;;5108065;27;20192;-81
2023/01/22 09:50:33;;;;;;;12.07;7.15;;;2.90;99.90;;;;;;5111981;27;20179;-82
2023/01/22 09:53:04;;;;;;;9.82;7.13;;;2.90;99.90;;;;;;5106115;27;20294;-81
2023/01/22 09:55:35;;;;;;;10.32;7.22;;;2.90;99.90;;;;;;5112532;27;20259;-82
2023/01/22 09:58:04;;;;;;;16.55;6.95;;;2.90;99.90;;;;;;5109873;27;20227;-81
2023/01/22 10:00:47;;;;;;;9.90;6.85;;;2.80;99.90;;;;;;5109119;27;20362;-80
2023/01/22 10:03:36;;;;;;;13.02;7.00;;;2.90;99.90;;;;;;5114798;27;20179;-79
2023/01/22 10:06:09;;;;;;;13.27;7.35;;;2.80;99.90;;;;;;5109032;27;20272;-80
2023/01/22 10:09:15;;;;;;;11.60;7.38;;;2.80;99.90;;;;;;5102432;27;20172;-81
2023/01/22 10:11:44;;;;;;;12.20;7.45;;;2.70;99.90;;;;;;5046743;28;20240;-80
2023/01/22 10:14:16;;;;;;;11.32;7.40;;;2.80;99.90;;;;;;5029681;28;20237;-80
2023/01/22 10:16:41;;;;;;;11.70;7.50;;;2.70;99.90;;;;;;5049007;27;20271;-79
2023/01/22 10:19:37;;;;;;;12.65;7.65;;;2.70;99.90;;;;;;5095226;27;20176;-78
2023/01/22 10:22:21;;;;;;;13.27;7.45;;;2.70;99.90;;;;;;5111898;27;20261;-84
2023/01/22 10:24:47;;;;;;;15.32;7.13;;;2.70;99.90;;;;;;5110143;27;20208;-83
2023/01/22 10:27:16;;;;;;;14.48;7.50;;;2.70;99.90;;;;;;5109163;27;20185;-81
2023/01/22 10:29:54;;;;;;;11.93;7.88;;;2.70;99.90;;;;;;5109951;27;20307;-81
2023/01/22 10:32:24;;;;;;;13.02;7.70;;;2.70;99.90;;;;;;5111346;27;20544;-79
2023/01/22 10:35:18;;;;;;;13.10;7.70;;;2.70;99.90;;;;;;5111692;27;20176;-81
2023/01/22 10:37:49;;;;;;;14.73;7.45;;;2.70;99.90;;;;;;5109412;27;20192;-80
2023/01/22 10:40:36;;;;;;;9.90;6.47;;;2.70;99.90;;;;;;5111097;27;20179;-81
2023/01/22 10:43:16;;;;;;;12.07;6.78;;;2.70;99.90;;;;;;5112958;27;20180;-82
2023/01/22 10:45:51;;;;;;;9.82;6.38;;;2.70;99.90;;;;;;5112506;28;20200;-83
2023/01/22 10:48:18;;;;;;;12.38;6.35;;;2.70;99.90;;;;;;5114050;28;22733;-79
2023/01/22 10:50:45;;;;;;;10.60;6.70;;;2.80;99.90;;;;;;5112030;28;20180;-81
2023/01/22 10:53:36;;;;;;;8.93;6.10;;;2.70;99.90;;;;;;5113751;27;20209;-81
2023/01/22 10:56:06;;;;;;;10.82;6.40;;;2.80;99.90;;;;;;5111355;28;20230;-84
2023/01/22 10:58:36;;;;;;;12.55;6.00;;;2.80;99.90;;;;;;5109724;28;20203;-81
2023/01/22 11:01:05;;;;;;;13.18;6.72;;;2.80;99.90;;;;;;5109736;28;20552;-86
2023/01/22 11:03:33;;;;;;;11.48;6.13;;;2.80;99.90;;;;;;5120895;27;20664;-79
2023/01/22 11:06:37;;;;;;;12.98;6.88;;;2.90;99.90;;;;;;5096482;28;20191;-79
2023/01/22 11:09:16;;;;;;;11.40;6.22;;;2.80;99.90;;;;;;5111461;28;20180;-80
2023/01/22 11:11:49;;;;;;;8.95;6.10;;;2.90;99.90;;;;;;5114555;28;20176;-81
2023/01/22 11:14:23;;;;;;;15.75;6.72;;;2.90;99.90;;;;;;5114224;28;20276;-82
2023/01/22 11:16:52;;;;;;;11.07;6.28;;;2.90;99.90;;;;;;5116867;27;20181;-81
2023/01/22 11:19:22;;;;;;;11.00;6.78;;;2.90;99.90;;;;;;5114265;27;20923;-81
2023/01/22 11:21:51;;;;;;;9.50;6.18;;;2.90;99.90;;;;;;5109610;28;20185;-82
2023/01/22 11:24:35;;;;;;;9.35;6.57;;;2.90;99.90;;;;;;5109618;28;20264;-80
2023/01/22 11:27:13;;;;;;;10.63;6.90;;;3.00;99.90;;;;;;5110668;28;20199;-82
2023/01/22 11:30:24;;;;;;;12.00;6.63;;;3.00;99.90;;;;;;5113206;27;20264;-83
2023/01/22 11:33:09;;;;;;;13.30;7.03;;;3.10;99.90;;;;;;5094434;28;20300;-77
2023/01/22 11:35:43;;;;;;;10.93;6.65;;;3.10;99.90;;;;;;5126131;27;20222;-79
2023/01/22 11:38:45;;;;;;;11.27;7.10;;;3.10;99.90;;;;;;5108180;28;20544;-79
2023/01/22 11:41:46;;;;;;;9.48;6.47;;;3.20;99.90;;;;;;5108696;27;20640;-79
2023/01/22 11:44:18;;;;;;;12.23;6.38;;;3.20;99.90;;;;;;5077752;28;20655;-81
2023/01/22 11:46:58;;;;;;;13.20;6.18;;;3.20;99.90;;;;;;5108971;27;20177;-85
2023/01/22 11:49:43;;;;;;;9.43;6.18;;;3.20;99.90;;;;;;5111722;28;20184;-80
2023/01/22 11:52:36;;;;;;;10.57;5.63;;;3.20;99.90;;;;;;5130616;27;20226;-79
2023/01/22 11:55:19;;;;;;;15.07;6.43;;;3.30;99.90;;;;;;5078663;27;20198;-77
2023/01/22 11:58:13;;;;;;;12.43;6.28;;;3.30;99.90;;;;;;5115267;27;20180;-79
2023/01/22 12:00:53;;;;;;;11.30;6.45;;;3.40;99.90;;;;;;5114473;27;20709;-78
2023/01/22 12:03:38;;;;;;;15.70;6.78;;;3.40;99.90;;;;;;5114750;27;20636;-77
2023/01/22 12:06:11;;;;;;;15.63;6.90;;;3.40;99.90;;;;;;5113064;27;20176;-79
2023/01/22 12:09:12;;;;;;;10.52;6.47;;;3.50;99.90;;;;;;5114550;27;20966;-82
2023/01/22 12:12:12;;;;;;;13.27;6.03;;;3.60;99.90;;;;;;5033903;27;20198;-82
2023/01/22 12:15:02;;;;;;;14.40;6.43;;;3.60;99.90;;;;;;5113793;27;20213;-79
2023/01/22 12:17:53;;;;;;;14.80;5.53;;;3.70;99.90;;;;;;5112770;27;20524;-82
2023/01/22 12:21:03;;;;;;;12.15;6.00;;;3.60;99.90;;;;;;5117098;27;20199;-82
2023/01/22 12:23:46;;;;;;;11.52;5.70;;;3.70;99.90;;;;;;5116935;27;20180;-81
2023/01/22 12:26:26;;;;;;;10.80;5.75;;;3.70;99.90;;;;;;5099011;27;20180;-78
2023/01/22 12:29:09;;;;;;;12.07;6.00;;;3.70;99.90;;;;;;5120016;27;20160;-81
2023/01/22 12:31:48;;;;;;;8.70;5.72;;;3.70;99.90;;;;;;5113422;27;20211;-82
2023/01/22 12:34:21;;;;;;;11.43;5.72;;;3.70;99.90;;;;;;5098077;27;20200;-80
2023/01/22 12:36:48;;;;;;;10.77;6.18;;;3.80;99.90;;;;;;5112527;27;20181;-81
2023/01/22 12:39:20;;;;;;;11.50;6.32;;;3.80;99.90;;;;;;5100519;27;20196;-80
2023/01/22 12:42:04;;;;;;;12.90;5.85;;;3.70;99.90;;;;;;5119105;27;20225;-83
2023/01/22 12:44:48;;;;;;;12.55;6.13;;;3.70;99.90;;;;;;5114506;27;20265;-78
2023/01/22 12:47:33;;;;;;;11.48;6.50;;;3.70;99.90;;;;;;5110712;27;20670;-79
2023/01/22 12:49:59;;;;;;;11.15;6.90;;;3.80;99.90;;;;;;5113386;27;20225;-83
2023/01/22 12:52:32;;;;;;;11.60;6.40;;;3.80;99.90;;;;;;5116203;27;20574;-81
2023/01/22 12:54:59;;;;;;;11.38;6.40;;;3.80;99.90;;;;;;5110515;27;20242;-80
2023/01/22 12:57:39;;;;;;;12.40;6.60;;;3.70;99.90;;;;;;5110777;27;20203;-80
2023/01/22 13:00:21;;;;;;;17.80;6.95;;;3.70;99.90;;;;;;5111216;27;20220;-80
2023/01/22 13:02:48;;;;;;;12.05;6.45;;;3.80;99.90;;;;;;5110855;27;22730;-81
2023/01/22 13:05:29;;;;;;;15.55;7.57;;;3.80;99.90;;;;;;5115841;27;20177;-84
2023/01/22 13:08:04;;;;;;;12.13;6.95;;;3.80;99.90;;;;;;5097649;27;20181;-81
2023/01/22 13:10:33;;;;;;;11.32;7.03;;;3.80;99.90;;;;;;5114967;27;20915;-81